Time;durP1;ratioP1;P1;durP2;ratioP2;P2;SDS_P1;SDS_P2;PMS_P1;PMS_P2;Temp;Humidity;BMP_temperature;BMP_pressure;BME280_temperature;BME280_humidity;BME280_pressure;Samples;Min_cycle;Max_cycle;Signal;HPM_P1;HPM_P2
2022/03/10 00:01:54;;;;;;;1.73;1.63;;;;;;;8.08;38.11;101805.59;5186675;28;20038;-77
2022/03/10 00:04:25;;;;;;;1.48;1.38;;;;;;;8.08;38.07;101802.97;5177763;28;20064;-76
2022/03/10 00:06:55;;;;;;;2.08;1.40;;;;;;;8.08;38.29;101802.97;5156373;28;20040;-77
2022/03/10 00:09:26;;;;;;;1.13;1.08;;;;;;;8.00;38.66;101805.56;5157622;28;20536;-77
2022/03/10 00:11:56;;;;;;;1.70;1.60;;;;;;;8.01;38.36;101807.31;5178014;28;20619;-77
2022/03/10 00:14:30;;;;;;;1.75;1.65;;;;;;;7.97;38.61;101810.81;5161758;28;20037;-77
2022/03/10 00:17:01;;;;;;;1.95;1.65;;;;;;;7.93;38.99;101812.56;5170846;28;20042;-78
2022/03/10 00:19:31;;;;;;;4.75;3.35;;;;;;;7.95;38.94;101815.16;5156300;28;20034;-76
2022/03/10 00:22:02;;;;;;;1.88;1.77;;;;;;;7.93;38.87;101814.28;5157807;28;20048;-75
2022/03/10 00:24:33;;;;;;;2.20;2.05;;;;;;;7.86;39.14;101814.28;5156099;28;20045;-77
2022/03/10 00:27:04;;;;;;;1.00;1.00;;;;;;;7.84;39.05;101808.16;5175483;28;20060;-77
2022/03/10 00:29:35;;;;;;;2.35;2.25;;;;;;;7.84;39.35;101815.16;5155019;28;20038;-78
2022/03/10 00:32:09;;;;;;;2.50;2.30;;;;;;;7.80;39.27;101816.00;5171534;28;20034;-78
2022/03/10 00:34:44;;;;;;;4.63;2.33;;;;;;;7.73;38.84;101812.50;5173810;28;20041;-79
2022/03/10 00:37:15;;;;;;;1.15;1.08;;;;;;;7.66;39.00;101815.97;5162168;28;20045;-77
2022/03/10 00:39:45;;;;;;;2.13;1.92;;;;;;;7.64;39.30;101817.72;5144118;28;20103;-77
2022/03/10 00:42:16;;;;;;;2.28;2.08;;;;;;;7.63;39.66;101815.97;5143982;28;20389;-78
2022/03/10 00:44:46;;;;;;;2.05;1.95;;;;;;;7.56;39.52;101820.28;5150944;28;20034;-76
2022/03/10 00:47:20;;;;;;;2.30;2.00;;;;;;;7.57;39.41;101829.88;5162431;28;20553;-76
2022/03/10 00:49:54;;;;;;;6.63;4.85;;;;;;;7.53;40.55;101831.63;5176000;28;20512;-78
2022/03/10 00:52:25;;;;;;;1.10;1.10;;;;;;;7.48;39.67;101827.22;5178425;28;20045;-78
2022/03/10 00:54:56;;;;;;;1.90;1.80;;;;;;;7.42;40.01;101825.47;5174098;28;20042;-77
2022/03/10 00:57:26;;;;;;;1.98;1.88;;;;;;;7.45;39.90;101825.50;5163067;28;20128;-77
2022/03/10 00:59:56;;;;;;;2.55;2.35;;;;;;;7.41;39.71;101836.78;5168296;28;20666;-78
2022/03/10 01:02:31;;;;;;;4.20;1.95;;;;;;;7.39;39.89;101826.34;5165021;28;20038;-77
2022/03/10 01:05:04;;;;;;;1.35;1.27;;;;;;;7.30;40.16;101828.91;5144927;28;20037;-75
2022/03/10 01:07:35;;;;;;;1.63;1.52;;;;;;;7.30;40.40;101828.03;5182232;28;20037;-78
2022/03/10 01:10:07;;;;;;;1.52;0.75;;;;;;;7.30;40.41;101833.25;5181319;28;20034;-77
2022/03/10 01:12:41;;;;;;;6.50;1.30;;;;;;;7.27;39.89;101826.31;5164176;28;20038;-78
2022/03/10 01:15:23;;;;;;;1.35;1.30;;;;;;;7.20;40.13;101824.50;5162303;28;20699;-78
2022/03/10 01:17:54;;;;;;;1.55;1.45;;;;;;;7.14;39.95;101827.97;5161199;28;20030;-78
2022/03/10 01:20:25;;;;;;;3.45;1.85;;;;;;;7.12;40.25;101827.09;5192083;28;20072;-77
2022/03/10 01:23:17;;;;;;;2.30;2.10;;;;;;;7.10;40.43;101820.97;5175582;28;20097;-78
2022/03/10 01:26:06;;;;;;;3.80;2.90;;;;;;;7.05;40.36;101814.88;5109757;28;20047;-77
2022/03/10 01:28:37;;;;;;;0.75;0.75;;;;;;;7.03;40.49;101819.22;5179292;28;20034;-75
2022/03/10 01:31:09;;;;;;;1.23;1.13;;;;;;;7.03;40.38;101811.38;5170639;28;20121;-77
2022/03/10 01:33:40;;;;;;;3.65;0.88;;;;;;;6.96;40.68;101807.00;5164825;28;20675;-78
2022/03/10 01:36:10;;;;;;;2.00;1.42;;;;;;;6.89;40.68;101806.97;5163261;28;20095;-78
2022/03/10 01:38:42;;;;;;;0.57;0.57;;;;;;;6.89;41.13;101806.97;5142433;28;20034;-77
2022/03/10 01:41:15;;;;;;;1.65;1.55;;;;;;;6.75;41.17;101808.59;5161830;28;20061;-78
2022/03/10 01:44:15;;;;;;;1.23;1.20;;;;;;;6.75;40.71;101814.72;5162929;28;20030;-77
2022/03/10 01:46:46;;;;;;;0.95;0.95;;;;;;;6.75;40.91;101819.03;5200773;28;20096;-77
2022/03/10 01:49:20;;;;;;;1.98;1.27;;;;;;;6.69;41.24;101813.78;5157991;28;20117;-77
2022/03/10 01:51:51;;;;;;;2.45;2.35;;;;;;;6.65;40.90;101818.13;5176096;28;20121;-77
2022/03/10 01:54:22;;;;;;;1.17;1.17;;;;;;;6.56;41.59;101810.22;5162032;28;21071;-77
2022/03/10 01:56:55;;;;;;;5.03;2.65;;;;;;;6.56;41.25;101811.09;5147586;28;20030;-77
2022/03/10 01:59:26;;;;;;;2.00;1.90;;;;;;;6.52;41.65;101804.09;5164226;28;20034;-76
2022/03/10 02:01:56;;;;;;;3.85;2.60;;;;;;;6.52;41.21;101806.72;5159957;28;20045;-78
2022/03/10 02:04:27;;;;;;;5.68;2.22;;;;;;;6.52;41.68;101798.91;5166270;28;20199;-77
2022/03/10 02:07:01;;;;;;;2.80;1.35;;;;;;;6.52;41.73;101798.91;5177384;28;20045;-76
2022/03/10 02:12:20;;;;;;;0.63;0.63;;;;;;;6.48;41.41;101804.97;5194072;28;20062;-77
2022/03/10 02:17:40;;;;;;;5.55;2.35;;;;;;;6.35;41.39;101792.69;5159161;28;20045;-78
2022/03/10 02:20:11;;;;;;;4.88;2.42;;;;;;;6.30;41.27;101796.13;5176897;28;20045;-78
2022/03/10 02:22:41;;;;;;;1.20;1.20;;;;;;;6.29;41.56;101794.38;5140711;28;20081;-77
2022/03/10 02:25:15;;;;;;;0.98;0.98;;;;;;;6.18;41.45;101801.22;5160115;28;20099;-78
2022/03/10 02:27:50;;;;;;;2.17;2.05;;;;;;;6.25;41.65;101797.81;5156826;28;20023;-78
2022/03/10 02:30:23;;;;;;;0.98;0.98;;;;;;;6.20;41.65;101796.06;5160948;28;20072;-78
2022/03/10 02:32:54;;;;;;;1.80;1.70;;;;;;;6.22;42.36;101791.72;5154693;28;20026;-77
2022/03/10 02:35:25;;;;;;;2.05;1.85;;;;;;;6.14;42.35;101795.13;5155978;28;20100;-76
2022/03/10 02:37:56;;;;;;;2.35;2.25;;;;;;;6.15;42.01;101793.41;5177854;28;20116;-78
2022/03/10 02:40:27;;;;;;;0.95;0.95;;;;;;;6.16;41.79;101792.53;5160174;28;20736;-78
2022/03/10 02:42:58;;;;;;;0.90;0.90;;;;;;;6.12;42.29;101785.56;5178759;28;20095;-77
2022/03/10 02:45:29;;;;;;;7.88;1.65;;;;;;;6.10;42.42;101789.88;5177029;28;20042;-80
2022/03/10 02:47:59;;;;;;;2.72;2.53;;;;;;;6.07;43.04;101784.66;5179192;28;20031;-78
2022/03/10 02:50:30;;;;;;;1.70;1.60;;;;;;;6.08;42.58;101788.97;5161308;28;20046;-78
2022/03/10 02:53:00;;;;;;;0.80;0.80;;;;;;;6.01;42.15;101787.19;5189635;28;20674;-77
2022/03/10 02:55:32;;;;;;;1.88;1.75;;;;;;;6.00;42.61;101786.31;5174401;28;20456;-77
2022/03/10 02:58:03;;;;;;;1.60;1.50;;;;;;;5.93;42.39;101782.75;5166899;28;20030;-77
2022/03/10 03:00:33;;;;;;;2.67;2.05;;;;;;;5.92;42.55;101783.59;5157699;28;20135;-78
2022/03/10 03:03:04;;;;;;;0.70;0.70;;;;;;;5.86;42.15;101788.75;5162537;28;20196;-78
2022/03/10 03:05:35;;;;;;;4.10;3.75;;;;;;;5.87;42.97;101794.88;5159458;28;20045;-77
2022/03/10 03:08:09;;;;;;;1.42;1.33;;;;;;;5.79;42.69;101789.56;5163019;28;20041;-78
2022/03/10 03:10:39;;;;;;;;;;;;;;;5.78;42.98;101793.03;5153018;28;20039;-77
2022/03/10 03:13:10;;;;;;;0.68;0.68;;;;;;;5.68;42.55;101789.47;5186469;28;19913;-78
2022/03/10 03:15:42;;;;;;;0.82;0.82;;;;;;;5.72;43.04;101790.38;5157919;28;20042;-78
2022/03/10 03:18:13;;;;;;;6.23;2.37;;;;;;;5.71;43.20;101791.22;5155954;28;20043;-77
2022/03/10 03:20:43;;;;;;;2.20;2.05;;;;;;;5.72;42.85;101796.44;5176346;28;20046;-78
2022/03/10 03:23:14;;;;;;;0.75;0.75;;;;;;;5.68;42.57;101795.53;5169208;28;20026;-76
2022/03/10 03:25:44;;;;;;;2.00;1.35;;;;;;;5.67;42.96;101798.13;5185869;28;20097;-76
2022/03/10 03:28:15;;;;;;;1.50;1.42;;;;;;;5.63;43.17;101801.53;5173010;28;20026;-78
2022/03/10 03:30:46;;;;;;;1.05;1.05;;;;;;;5.60;42.71;101802.38;5159845;28;20034;-78
2022/03/10 03:33:17;;;;;;;3.30;1.33;;;;;;;5.57;43.10;101804.97;5162164;28;20069;-78
2022/03/10 03:35:47;;;;;;;3.17;2.97;;;;;;;5.54;42.83;101796.25;5171902;28;20108;-77
2022/03/10 03:38:20;;;;;;;2.45;2.25;;;;;;;5.52;43.40;101793.63;5167741;28;20057;-81
2022/03/10 03:40:51;;;;;;;0.98;0.98;;;;;;;5.51;43.36;101802.28;5158177;28;20512;-76
2022/03/10 03:43:25;;;;;;;1.70;1.60;;;;;;;5.49;43.36;101801.41;5156706;28;20041;-77
2022/03/10 03:45:56;;;;;;;7.40;3.85;;;;;;;5.47;43.59;101795.31;5151316;28;20040;-78
2022/03/10 03:48:29;;;;;;;1.10;1.10;;;;;;;5.41;43.27;101803.06;5178497;28;20042;-77
2022/03/10 03:50:59;;;;;;;1.75;1.65;;;;;;;5.41;43.13;101810.88;5170322;28;20041;-77
2022/03/10 03:53:30;;;;;;;3.92;0.88;;;;;;;5.41;43.42;101810.88;5159996;28;20033;-78
2022/03/10 03:56:03;;;;;;;1.90;1.80;;;;;;;5.34;43.44;101821.19;5176181;28;20030;-78
2022/03/10 03:58:34;;;;;;;;;;;;;;;5.34;43.47;101822.91;5164578;28;20030;-78
2022/03/10 04:01:04;;;;;;;0.95;0.95;;;;;;;5.33;43.19;101818.56;5152507;28;19918;-78
2022/03/10 04:03:35;;;;;;;0.90;0.82;;;;;;;5.29;43.35;101815.06;5173983;28;20033;-76
2022/03/10 04:06:07;;;;;;;2.38;2.17;;;;;;;5.24;43.01;101819.34;5172906;28;20037;-78
2022/03/10 04:08:37;;;;;;;2.90;2.00;;;;;;;5.22;43.26;101820.16;5170048;28;20040;-77
2022/03/10 04:11:08;;;;;;;1.40;1.30;;;;;;;5.18;43.60;101816.63;5166941;28;20046;-77
2022/03/10 04:13:38;;;;;;;4.07;2.25;;;;;;;5.21;43.90;101811.47;5166676;28;20057;-77
2022/03/10 04:16:09;;;;;;;1.95;1.85;;;;;;;5.20;43.19;101818.44;5156582;28;20390;-77
2022/03/10 04:18:40;;;;;;;1.88;1.55;;;;;;;5.11;43.25;101810.50;5155632;28;20068;-77
2022/03/10 04:21:11;;;;;;;0.93;0.93;;;;;;;5.09;43.91;101816.50;5169103;28;20117;-77
2022/03/10 04:23:42;;;;;;;0.65;0.65;;;;;;;5.07;43.73;101818.25;5149206;28;20044;-77
2022/03/10 04:26:12;;;;;;;1.02;1.02;;;;;;;5.09;43.84;101822.59;5150118;28;20079;-78
2022/03/10 04:28:43;;;;;;;3.75;1.73;;;;;;;5.08;44.07;101833.84;5185035;28;20038;-78
2022/03/10 04:31:13;;;;;;;0.73;0.73;;;;;;;4.99;43.78;101829.41;5151788;28;20050;-78
2022/03/10 04:33:44;;;;;;;0.80;0.80;;;;;;;5.00;44.20;101825.94;5153368;28;20401;-77
2022/03/10 04:36:14;;;;;;;2.70;2.22;;;;;;;5.00;44.50;101820.72;5152887;28;20084;-77
2022/03/10 04:38:45;;;;;;;0.50;0.50;;;;;;;4.95;43.97;101822.41;5150912;28;20079;-77
2022/03/10 04:41:18;;;;;;;1.80;1.35;;;;;;;4.89;44.00;101825.78;5155592;28;20038;-78
2022/03/10 04:43:51;;;;;;;0.77;0.77;;;;;;;4.87;44.16;101824.91;5163259;28;20026;-78
2022/03/10 04:46:27;;;;;;;2.40;2.20;;;;;;;4.85;44.23;101820.53;5163796;28;20030;-77
2022/03/10 04:48:58;;;;;;;1.83;1.27;;;;;;;4.85;44.46;101820.53;5183453;28;20061;-78
2022/03/10 04:51:29;;;;;;;0.63;0.63;;;;;;;4.81;44.05;101823.94;5152501;28;20121;-78
2022/03/10 04:54:01;;;;;;;1.08;1.08;;;;;;;4.77;44.21;101827.34;5167369;28;20077;-77
2022/03/10 04:56:47;;;;;;;1.15;1.13;;;;;;;4.74;44.35;101822.97;5128163;28;20050;-77
2022/03/10 04:59:18;;;;;;;3.08;2.78;;;;;;;4.70;44.07;101827.25;5155380;28;20030;-78
2022/03/10 05:01:48;;;;;;;1.95;1.80;;;;;;;4.72;44.64;101828.16;5170838;28;20732;-78
2022/03/10 05:04:18;;;;;;;1.40;1.38;;;;;;;4.73;44.62;101821.22;5157455;28;20034;-78
2022/03/10 05:06:49;;;;;;;1.42;1.33;;;;;;;4.64;43.81;101826.28;5175375;28;20128;-77
2022/03/10 05:09:19;;;;;;;8.70;2.40;;;;;;;4.65;44.83;101825.44;5159296;28;20038;-77
2022/03/10 05:11:52;;;;;;;1.50;1.43;;;;;;;4.61;44.86;101829.72;5167802;28;20100;-77
2022/03/10 05:14:26;;;;;;;3.85;1.42;;;;;;;4.59;44.42;101828.81;5136638;28;20125;-77
2022/03/10 05:16:58;;;;;;;2.53;2.42;;;;;;;4.58;44.80;101832.28;5151914;28;20085;-77
2022/03/10 05:19:29;;;;;;;4.80;3.92;;;;;;;4.52;44.18;101833.06;5158724;28;20045;-77
2022/03/10 05:21:59;;;;;;;0.60;0.60;;;;;;;4.53;44.98;101829.59;5154506;28;20048;-77
2022/03/10 05:24:30;;;;;;;1.02;1.02;;;;;;;4.57;45.27;101834.00;5166565;28;20043;-78
2022/03/10 05:27:10;;;;;;;4.53;1.65;;;;;;;4.51;44.99;101835.59;5154531;28;20063;-78
2022/03/10 05:29:44;;;;;;;1.17;1.17;;;;;;;4.52;45.35;101833.06;5141040;28;20034;-77
2022/03/10 05:32:18;;;;;;;;;;;;;;;4.50;45.40;101833.88;5156877;28;20031;-77
2022/03/10 05:34:49;;;;;;;1.67;1.25;;;;;;;4.41;45.55;101829.41;5170980;28;19944;-77
2022/03/10 05:37:19;;;;;;;0.60;0.60;;;;;;;4.35;44.95;101835.38;5151915;28;20550;-77
2022/03/10 05:39:50;;;;;;;3.10;2.90;;;;;;;4.37;45.49;101833.66;5146131;28;20092;-77
2022/03/10 05:42:20;;;;;;;1.02;1.00;;;;;;;4.35;45.74;101840.56;5160382;28;20022;-78
2022/03/10 05:44:51;;;;;;;1.00;1.00;;;;;;;4.30;45.48;101842.22;5158551;28;20049;-78
2022/03/10 05:47:21;;;;;;;2.15;2.05;;;;;;;4.31;45.24;101837.88;5165167;28;20030;-78
2022/03/10 05:49:52;;;;;;;2.00;1.80;;;;;;;4.23;45.14;101841.22;5166478;28;20053;-77
2022/03/10 05:52:22;;;;;;;2.90;2.45;;;;;;;4.23;45.16;101843.81;5168436;28;20030;-77
2022/03/10 05:54:53;;;;;;;1.15;1.05;;;;;;;4.24;46.03;101839.53;5150236;28;20046;-78
2022/03/10 05:57:23;;;;;;;1.38;1.33;;;;;;;4.18;45.24;101842.88;5173248;28;20033;-77
2022/03/10 05:59:56;;;;;;;1.40;1.30;;;;;;;4.16;45.55;101856.69;5163721;28;20123;-77
2022/03/10 06:02:27;;;;;;;2.28;2.15;;;;;;;4.15;45.93;101852.34;5171777;28;20516;-77
2022/03/10 06:04:59;;;;;;;1.25;1.25;;;;;;;4.08;45.56;101856.56;5135829;28;20042;-77
2022/03/10 06:07:30;;;;;;;1.75;1.65;;;;;;;4.00;45.83;101859.03;5155155;28;20014;-78
2022/03/10 06:10:03;;;;;;;0.63;0.63;;;;;;;4.08;46.27;101857.44;5175359;28;20030;-76
2022/03/10 06:12:43;;;;;;;5.97;2.13;;;;;;;4.07;45.50;101854.78;5156108;28;20870;-77
2022/03/10 06:15:13;;;;;;;3.70;3.42;;;;;;;4.10;46.07;101860.06;5167849;28;20050;-78
2022/03/10 06:17:44;;;;;;;5.60;2.88;;;;;;;4.05;46.03;101866.91;5171929;28;20313;-77
2022/03/10 06:20:15;;;;;;;0.80;0.80;;;;;;;3.91;46.49;101861.44;5152030;28;20046;-77
2022/03/10 06:22:45;;;;;;;0.57;0.57;;;;;;;4.00;46.53;101863.31;5174435;28;20058;-77
2022/03/10 06:25:16;;;;;;;0.50;0.50;;;;;;;3.99;46.02;101861.56;5176717;28;20034;-79
2022/03/10 06:27:46;;;;;;;2.83;2.13;;;;;;;3.96;46.73;101862.41;5171720;28;20173;-80
2022/03/10 06:30:17;;;;;;;0.55;0.55;;;;;;;3.93;46.03;101858.03;5154639;28;20061;-79
2022/03/10 06:32:47;;;;;;;1.50;1.42;;;;;;;3.97;46.13;101871.09;5173335;28;20114;-78
2022/03/10 06:35:21;;;;;;;1.45;1.30;;;;;;;3.94;45.99;101870.16;5157038;28;20052;-78
2022/03/10 06:37:51;;;;;;;2.75;2.50;;;;;;;3.94;46.29;101874.47;5175825;28;20552;-77
2022/03/10 06:40:22;;;;;;;1.67;1.58;;;;;;;3.90;46.36;101875.28;5168090;28;20037;-76
2022/03/10 06:42:55;;;;;;;1.70;1.60;;;;;;;3.89;46.27;101866.59;5169409;28;20042;-76
2022/03/10 06:45:25;;;;;;;1.55;1.45;;;;;;;3.93;46.11;101864.94;5169983;28;20046;-75
2022/03/10 06:47:56;;;;;;;1.35;1.35;;;;;;;3.89;46.84;101870.91;5173880;28;20092;-73
2022/03/10 06:50:28;;;;;;;1.55;1.45;;;;;;;3.91;47.15;101869.25;5168784;28;20049;-75
2022/03/10 06:53:01;;;;;;;3.47;2.95;;;;;;;3.89;46.95;101871.78;5156428;28;20037;-75
2022/03/10 06:55:31;;;;;;;2.70;1.50;;;;;;;3.85;46.97;101877.78;5154827;28;20034;-78
2022/03/10 06:58:02;;;;;;;2.95;2.65;;;;;;;3.85;46.50;101880.38;5173841;28;20042;-77
2022/03/10 07:00:33;;;;;;;1.75;1.65;;;;;;;3.84;47.34;101875.16;5167409;28;20124;-77
2022/03/10 07:03:04;;;;;;;1.98;1.88;;;;;;;3.77;46.86;101877.63;5149618;28;20041;-76
2022/03/10 07:05:34;;;;;;;1.25;1.25;;;;;;;3.83;46.82;101881.19;5170310;28;20049;-77
2022/03/10 07:08:08;;;;;;;2.25;2.15;;;;;;;3.84;47.31;101882.94;5152781;28;20393;-77
2022/03/10 07:10:38;;;;;;;1.45;1.42;;;;;;;3.90;47.10;101883.91;5160141;28;20438;-77
2022/03/10 07:13:09;;;;;;;0.73;0.73;;;;;;;3.91;47.44;101888.28;5175019;28;20125;-76
2022/03/10 07:15:42;;;;;;;1.42;1.30;;;;;;;3.89;47.39;101886.50;5152483;28;20084;-76
2022/03/10 07:18:12;;;;;;;2.20;2.00;;;;;;;3.90;47.45;101883.06;5158752;28;20624;-79
2022/03/10 07:20:43;;;;;;;1.55;1.45;;;;;;;3.91;47.13;101883.09;5171839;28;20089;-78
2022/03/10 07:23:13;;;;;;;0.70;0.70;;;;;;;3.94;47.34;101885.75;5153046;28;20101;-77
2022/03/10 07:25:44;;;;;;;1.38;1.35;;;;;;;3.93;47.58;101891.78;5178154;28;20105;-77
2022/03/10 07:28:14;;;;;;;1.92;1.83;;;;;;;3.82;47.93;101882.03;5179228;28;20524;-78
2022/03/10 07:30:45;;;;;;;3.83;3.45;;;;;;;3.85;47.73;101890.75;5154219;28;20034;-78
2022/03/10 07:33:16;;;;;;;1.83;1.52;;;;;;;3.85;47.51;101889.88;5149592;28;20026;-76
2022/03/10 07:35:49;;;;;;;0.63;0.63;;;;;;;3.88;47.92;101887.34;5152216;28;20030;-76
2022/03/10 07:38:19;;;;;;;2.13;2.00;;;;;;;3.89;48.14;101894.28;5164009;28;20429;-75
2022/03/10 07:40:50;;;;;;;3.75;3.38;;;;;;;3.87;48.19;101885.59;5172050;28;20068;-76
2022/03/10 07:43:21;;;;;;;6.82;3.60;;;;;;;3.93;49.85;101888.28;5169766;28;20044;-77
2022/03/10 07:45:51;;;;;;;2.50;1.73;;;;;;;3.97;49.42;101889.25;5175342;28;20781;-77
2022/03/10 07:48:22;;;;;;;1.10;1.10;;;;;;;4.03;47.59;101890.22;5169986;28;20037;-77
2022/03/10 07:50:53;;;;;;;2.28;2.15;;;;;;;4.03;48.49;101878.97;5168966;28;20058;-78
2022/03/10 07:53:23;;;;;;;1.17;1.15;;;;;;;4.06;48.42;101892.91;5152165;28;20515;-78
2022/03/10 07:55:57;;;;;;;0.93;0.93;;;;;;;4.16;48.46;101890.47;5155886;28;20033;-79
2022/03/10 07:58:32;;;;;;;2.17;1.70;;;;;;;4.34;48.26;101885.56;5177232;28;20042;-78
2022/03/10 08:01:03;;;;;;;5.82;2.65;;;;;;;4.30;47.87;101882.94;5153936;28;20052;-76
2022/03/10 08:03:35;;;;;;;2.67;2.50;;;;;;;4.43;48.34;101884.88;5170591;28;20378;-79
2022/03/10 08:06:16;;;;;;;1.80;1.70;;;;;;;4.37;48.61;101884.78;5148900;28;20797;-79
2022/03/10 08:08:47;;;;;;;1.73;1.63;;;;;;;4.47;47.91;101884.06;5167351;28;20022;-77
2022/03/10 08:11:19;;;;;;;6.30;4.70;;;;;;;4.55;48.25;101886.81;5150790;28;20157;-79
2022/03/10 08:13:56;;;;;;;1.75;1.65;;;;;;;4.57;47.74;101883.38;5149948;28;20065;-78
2022/03/10 08:16:26;;;;;;;0.40;0.40;;;;;;;4.68;48.07;101886.16;5148844;28;20038;-78
2022/03/10 08:18:58;;;;;;;1.15;1.05;;;;;;;4.67;48.94;101886.13;5151588;28;20201;-76
2022/03/10 08:21:32;;;;;;;1.75;1.65;;;;;;;4.80;47.49;101884.59;5168305;28;20122;-77
2022/03/10 08:24:04;;;;;;;3.42;1.67;;;;;;;4.88;47.90;101891.66;5168175;28;20033;-79
2022/03/10 08:26:35;;;;;;;2.83;2.58;;;;;;;4.91;47.41;101887.38;5155381;28;20485;-77
2022/03/10 08:29:07;;;;;;;1.98;1.85;;;;;;;4.89;48.00;101887.34;5168861;28;20119;-77
2022/03/10 08:31:38;;;;;;;1.02;1.02;;;;;;;4.98;47.97;101886.59;5143817;28;20112;-77
2022/03/10 08:34:09;;;;;;;0.85;0.85;;;;;;;5.10;47.72;101883.31;5156501;28;20033;-77
2022/03/10 08:36:40;;;;;;;1.42;1.38;;;;;;;5.17;47.45;101879.94;5155409;28;20046;-76
2022/03/10 08:39:10;;;;;;;1.70;1.60;;;;;;;5.14;47.28;101875.56;5170611;28;20033;-78
2022/03/10 08:41:41;;;;;;;1.17;1.15;;;;;;;5.25;47.18;101872.25;5151922;28;20038;-77
2022/03/10 08:44:12;;;;;;;1.65;1.55;;;;;;;5.28;47.01;101870.56;5153023;28;20144;-77
2022/03/10 08:46:43;;;;;;;2.63;2.45;;;;;;;5.41;47.39;101871.59;5146148;28;20258;-77
2022/03/10 08:49:14;;;;;;;1.10;1.10;;;;;;;5.47;47.23;101870.81;5153303;28;20037;-77
2022/03/10 08:51:47;;;;;;;3.50;3.08;;;;;;;5.47;46.81;101866.44;5160589;28;20033;-77
2022/03/10 08:54:17;;;;;;;3.25;2.95;;;;;;;5.46;47.38;101869.03;5170612;28;20038;-77
2022/03/10 08:56:48;;;;;;;1.40;1.33;;;;;;;5.49;47.22;101866.50;5148612;28;20093;-77
2022/03/10 08:59:18;;;;;;;0.73;0.73;;;;;;;5.74;46.28;101862.44;5151457;28;20023;-78
2022/03/10 09:01:49;;;;;;;0.88;0.85;;;;;;;5.79;46.91;101865.09;5168394;28;20046;-79
2022/03/10 09:04:20;;;;;;;3.35;2.85;;;;;;;5.90;46.55;101852.19;5166436;28;20037;-78
2022/03/10 09:06:51;;;;;;;1.33;1.17;;;;;;;5.90;46.13;101850.47;5164475;28;20046;-79
2022/03/10 09:09:21;;;;;;;1.00;0.93;;;;;;;5.89;45.99;101845.22;5177467;28;20092;-78
2022/03/10 09:11:51;;;;;;;1.23;1.17;;;;;;;5.90;46.72;101842.66;5155675;28;20649;-78
2022/03/10 09:14:22;;;;;;;1.50;1.40;;;;;;;6.02;46.75;101847.16;5184685;28;20033;-77
2022/03/10 09:16:53;;;;;;;4.47;2.67;;;;;;;6.08;46.58;101847.19;5176577;28;20460;-78
2022/03/10 09:19:23;;;;;;;1.35;1.25;;;;;;;6.11;46.54;101848.94;5159583;28;20042;-77
2022/03/10 09:21:54;;;;;;;2.28;1.92;;;;;;;6.17;46.47;101846.41;5204633;28;20092;-77
2022/03/10 09:24:25;;;;;;;3.47;2.63;;;;;;;6.33;46.49;101841.31;5179605;28;20833;-77
2022/03/10 09:26:56;;;;;;;2.50;2.05;;;;;;;6.26;46.76;101841.28;5168349;28;20045;-78
2022/03/10 09:29:27;;;;;;;5.10;3.20;;;;;;;6.38;46.37;101839.63;5174029;28;20494;-77
2022/03/10 09:31:57;;;;;;;1.55;1.45;;;;;;;6.35;46.04;101842.22;5186990;28;20641;-78
2022/03/10 09:34:30;;;;;;;2.10;2.03;;;;;;;6.46;46.42;101837.97;5172918;28;20127;-78
2022/03/10 09:37:01;;;;;;;3.72;3.42;;;;;;;6.63;45.74;101845.03;5173238;28;20038;-79
2022/03/10 09:39:32;;;;;;;3.63;3.30;;;;;;;6.74;45.70;101841.66;5163318;28;20033;-79
2022/03/10 09:42:05;;;;;;;1.52;1.42;;;;;;;6.84;45.93;101844.31;5177158;28;20045;-78
2022/03/10 09:44:40;;;;;;;2.58;2.05;;;;;;;6.85;45.30;101841.72;5146531;28;20042;-78
2022/03/10 09:47:11;;;;;;;3.15;2.95;;;;;;;6.87;45.21;101844.31;5158516;28;20032;-78
2022/03/10 09:49:42;;;;;;;2.45;2.35;;;;;;;6.88;45.65;101835.63;5172298;28;20029;-79
2022/03/10 09:52:15;;;;;;;1.00;0.93;;;;;;;7.06;45.56;101833.16;5132918;28;20456;-80
2022/03/10 09:54:48;;;;;;;2.45;2.10;;;;;;;7.05;45.99;101830.53;5171966;28;20124;-78
2022/03/10 09:57:22;;;;;;;1.70;1.60;;;;;;;7.15;45.18;101826.22;5154411;28;20031;-78
2022/03/10 09:59:56;;;;;;;1.90;1.75;;;;;;;7.38;45.17;101826.34;5155714;28;20641;-78
2022/03/10 10:02:29;;;;;;;2.35;2.15;;;;;;;7.35;45.50;101818.47;5133343;28;20033;-77
2022/03/10 10:05:00;;;;;;;3.03;2.25;;;;;;;7.50;45.51;101826.38;5151100;28;20127;-78
2022/03/10 10:07:31;;;;;;;2.60;2.40;;;;;;;7.60;44.19;101811.63;5159861;28;20653;-77
2022/03/10 10:10:06;;;;;;;3.53;1.80;;;;;;;7.56;44.18;101820.28;5155546;28;20041;-79
2022/03/10 10:12:40;;;;;;;1.52;1.42;;;;;;;7.60;44.51;101815.94;5143545;28;20137;-79
2022/03/10 10:15:12;;;;;;;5.20;3.65;;;;;;;7.76;44.07;101816.88;5177798;28;20128;-78
2022/03/10 10:17:42;;;;;;;3.55;3.25;;;;;;;7.94;43.36;101811.66;5174620;28;20702;-78
2022/03/10 10:20:13;;;;;;;1.77;1.30;;;;;;;8.04;43.59;101813.41;5171814;28;20048;-79
2022/03/10 10:22:45;;;;;;;2.33;2.22;;;;;;;8.10;43.52;101809.94;5156725;28;20034;-78
2022/03/10 10:25:20;;;;;;;2.28;1.90;;;;;;;8.06;44.29;101812.56;5155761;28;20068;-79
2022/03/10 10:27:52;;;;;;;4.05;3.25;;;;;;;8.04;44.18;101807.34;5172242;28;20038;-79
2022/03/10 10:30:22;;;;;;;2.33;2.13;;;;;;;8.21;44.39;101815.19;5172049;28;20034;-79
2022/03/10 10:32:53;;;;;;;1.42;1.35;;;;;;;8.55;42.56;101811.72;5164262;28;20766;-77
2022/03/10 10:35:24;;;;;;;2.17;2.08;;;;;;;8.44;43.13;101807.34;5156818;28;20156;-79
2022/03/10 10:37:56;;;;;;;2.40;2.20;;;;;;;8.42;43.97;101811.69;5173499;28;20034;-78
2022/03/10 10:40:30;;;;;;;2.65;2.45;;;;;;;8.64;42.84;101806.44;5160083;28;20069;-78
2022/03/10 10:43:07;;;;;;;3.10;2.90;;;;;;;8.74;43.37;101808.19;5167700;28;20026;-78
2022/03/10 10:45:38;;;;;;;3.78;2.55;;;;;;;8.75;42.74;101807.31;5138854;28;20050;-79
2022/03/10 10:48:11;;;;;;;4.70;3.10;;;;;;;8.82;42.57;101809.03;5158026;28;20032;-80
2022/03/10 10:50:44;;;;;;;2.42;2.28;;;;;;;8.90;43.56;101805.53;5153186;28;20057;-77
2022/03/10 10:53:32;;;;;;;1.95;1.85;;;;;;;8.89;43.50;101803.78;5173020;28;20053;-79
2022/03/10 10:56:12;;;;;;;2.63;1.77;;;;;;;9.05;43.46;101792.38;5172505;28;20117;-79
2022/03/10 10:58:46;;;;;;;1.35;1.30;;;;;;;9.35;42.67;101787.91;5171021;28;20026;-78
2022/03/10 11:01:31;;;;;;;2.78;2.55;;;;;;;9.20;43.15;101782.75;5171153;28;20042;-79
2022/03/10 11:04:08;;;;;;;5.53;4.38;;;;;;;9.33;42.59;101779.19;5181986;28;20116;-78
2022/03/10 11:06:40;;;;;;;3.25;2.85;;;;;;;9.45;43.27;101779.16;5138181;28;20148;-78
2022/03/10 11:09:13;;;;;;;4.28;2.47;;;;;;;9.57;43.54;101770.34;5158244;28;20412;-78
2022/03/10 11:11:48;;;;;;;2.63;2.45;;;;;;;9.89;43.29;101763.13;5144383;28;20081;-79
2022/03/10 11:14:19;;;;;;;5.03;3.75;;;;;;;9.81;43.12;101768.44;5165127;28;20647;-78
2022/03/10 11:16:53;;;;;;;2.28;2.08;;;;;;;9.94;42.01;101766.59;5157654;28;20145;-79
2022/03/10 11:19:26;;;;;;;3.75;3.47;;;;;;;10.13;41.87;101761.19;5153972;28;20773;-79
2022/03/10 11:21:57;;;;;;;3.43;2.40;;;;;;;10.01;41.67;101755.19;5178209;28;20113;-77
2022/03/10 11:24:47;;;;;;;5.55;3.65;;;;;;;10.22;41.61;101753.22;5167618;28;20041;-77
2022/03/10 11:27:23;;;;;;;2.58;2.38;;;;;;;10.29;40.87;101751.44;5159324;28;20057;-78
2022/03/10 11:29:56;;;;;;;5.05;3.40;;;;;;;10.29;41.42;101741.78;5161556;28;20050;-77
2022/03/10 11:32:28;;;;;;;3.83;3.53;;;;;;;10.41;41.39;101743.50;5148391;28;20028;-78
2022/03/10 11:35:09;;;;;;;2.80;2.60;;;;;;;10.72;40.54;101724.78;5168859;28;20095;-77
2022/03/10 11:37:43;;;;;;;5.93;3.38;;;;;;;10.65;41.03;101726.59;5153711;28;20373;-77
2022/03/10 11:40:37;;;;;;;;;;;;;;;10.90;39.41;101728.09;5152402;28;20046;-77
2022/03/10 11:43:11;;;;;;;;;;;;;;;10.89;40.46;101716.69;5168002;28;19936;-77
2022/03/10 11:45:42;;;;;;;3.00;2.47;;;;;;;10.88;40.60;101720.19;5169396;28;19926;-77
2022/03/10 11:48:28;;;;;;;4.43;3.72;;;;;;;11.14;39.86;101719.00;5172187;28;20041;-77
2022/03/10 11:51:11;;;;;;;4.85;3.03;;;;;;;11.23;39.94;101716.25;5181758;28;20038;-77
2022/03/10 11:53:56;;;;;;;3.67;3.38;;;;;;;11.55;37.64;101716.69;5170511;28;20033;-76
2022/03/10 11:56:55;;;;;;;2.17;2.05;;;;;;;11.41;38.07;101709.00;5152388;28;20684;-76
2022/03/10 11:59:47;;;;;;;5.65;4.57;;;;;;;11.56;37.42;101713.16;5170153;28;20018;-76
2022/03/10 12:02:57;;;;;;;4.43;4.03;;;;;;;11.71;36.58;101706.78;5178820;28;20038;-77
2022/03/10 12:05:53;;;;;;;3.28;2.90;;;;;;;11.88;36.15;101704.75;5127887;28;20060;-77